createdAt,value
2018-12-14T00:00:47.471Z,39.97
2018-12-14T00:03:14.549Z,43.27
2018-12-14T00:05:43.088Z,40.10
2018-12-14T00:08:09.970Z,36.90
2018-12-14T00:10:36.564Z,40.00
2018-12-14T00:13:03.383Z,35.50
2018-12-14T00:15:29.884Z,34.73
2018-12-14T00:17:56.416Z,32.17
2018-12-14T00:20:23.115Z,33.53
2018-12-14T00:22:49.645Z,33.83
2018-12-14T00:25:16.219Z,27.90
2018-12-14T00:27:43.140Z,31.00
2018-12-14T00:30:09.656Z,28.10
2018-12-14T00:32:36.177Z,30.27
2018-12-14T00:35:02.858Z,27.00
2018-12-14T00:37:29.423Z,19.90
2018-12-14T00:39:55.899Z,28.27
2018-12-14T00:42:22.793Z,31.53
2018-12-14T00:44:49.361Z,26.30
2018-12-14T00:47:15.854Z,25.20
2018-12-14T00:49:42.463Z,26.93
2018-12-14T00:52:09.156Z,27.70
2018-12-14T00:54:35.870Z,26.77
2018-12-14T00:57:02.350Z,26.67
2018-12-14T00:59:28.863Z,30.83
2018-12-14T01:01:55.400Z,29.90
2018-12-14T01:04:21.940Z,28.27
2018-12-14T01:06:48.523Z,26.60
2018-12-14T01:09:15.133Z,28.13
2018-12-14T01:11:41.751Z,25.87
2018-12-14T01:14:08.283Z,23.77
2018-12-14T01:16:34.748Z,29.03
2018-12-14T01:19:01.613Z,29.23
2018-12-14T01:21:28.138Z,25.13
2018-12-14T01:23:54.627Z,24.50
2018-12-14T01:26:21.179Z,26.77
2018-12-14T01:28:47.646Z,26.50
2018-12-14T01:31:14.027Z,27.23
2018-12-14T01:33:40.700Z,27.97
2018-12-14T01:36:07.259Z,28.37
2018-12-14T01:38:33.745Z,24.00
2018-12-14T01:41:00.577Z,25.43
2018-12-14T01:43:27.237Z,24.70
2018-12-14T01:45:53.646Z,20.50
2018-12-14T01:48:20.557Z,26.00
2018-12-14T01:50:47.019Z,23.63
2018-12-14T01:53:13.492Z,25.73
2018-12-14T01:55:40.012Z,24.20
2018-12-14T01:58:06.560Z,26.30
2018-12-14T02:00:33.251Z,30.07
2018-12-14T02:03:00.102Z,28.43
2018-12-14T02:05:26.563Z,30.33
2018-12-14T02:07:53.087Z,26.10
2018-12-14T02:10:19.887Z,23.30
2018-12-14T02:12:46.465Z,26.57
2018-12-14T02:15:13.006Z,25.03
2018-12-14T02:17:39.676Z,27.43
2018-12-14T02:20:06.125Z,26.03
2018-12-14T02:22:32.579Z,26.30
2018-12-14T02:24:59.407Z,24.07
2018-12-14T02:27:25.871Z,26.70
2018-12-14T02:29:52.427Z,27.40
2018-12-14T02:32:18.959Z,25.13
2018-12-14T02:34:45.555Z,26.53
2018-12-14T02:37:11.991Z,28.80
2018-12-14T02:39:38.727Z,34.27
2018-12-14T02:42:05.289Z,33.57
2018-12-14T02:44:31.753Z,32.37
2018-12-14T02:46:58.288Z,28.53
2018-12-14T02:49:24.786Z,30.13
2018-12-14T02:51:51.349Z,31.43
2018-12-14T02:54:18.112Z,31.40
2018-12-14T02:56:44.573Z,31.93
2018-12-14T02:59:11.036Z,27.13
2018-12-14T03:01:37.610Z,28.03
2018-12-14T03:04:04.105Z,31.23
2018-12-14T03:06:30.643Z,30.70
2018-12-14T03:08:57.573Z,29.93
2018-12-14T03:11:24.017Z,31.90
2018-12-14T03:13:50.924Z,37.97
2018-12-14T03:16:17.572Z,36.13
2018-12-14T03:18:44.098Z,30.80
2018-12-14T03:21:10.596Z,29.70
2018-12-14T03:23:37.054Z,32.10
2018-12-14T03:26:03.659Z,30.87
2018-12-14T03:28:30.085Z,33.80
2018-12-14T03:30:56.592Z,37.30
2018-12-14T03:33:23.045Z,36.80
2018-12-14T03:35:49.481Z,31.97
2018-12-14T03:38:16.187Z,31.27
2018-12-14T03:40:42.618Z,30.50
2018-12-14T03:43:09.094Z,31.37
2018-12-14T03:45:35.712Z,27.50
2018-12-14T03:48:02.170Z,31.80
2018-12-14T03:50:28.756Z,31.20
2018-12-14T03:52:55.459Z,39.53
2018-12-14T03:55:22.006Z,31.77
2018-12-14T03:57:48.539Z,30.27
2018-12-14T04:00:15.575Z,31.43
2018-12-14T04:02:42.101Z,32.53
2018-12-14T04:05:08.521Z,35.30
2018-12-14T04:07:35.008Z,28.97
2018-12-14T04:10:01.634Z,36.53
2018-12-14T04:12:28.176Z,33.47
2018-12-14T04:14:54.672Z,36.87
2018-12-14T04:17:21.152Z,34.60
2018-12-14T04:19:47.755Z,32.57
2018-12-14T04:22:14.556Z,33.33
2018-12-14T04:24:41.066Z,30.20
2018-12-14T04:27:07.563Z,30.93
2018-12-14T04:29:34.201Z,32.33
2018-12-14T04:32:00.632Z,30.13
2018-12-14T04:34:27.076Z,32.00
2018-12-14T04:36:53.679Z,31.43
2018-12-14T04:39:20.168Z,35.40
2018-12-14T04:41:46.648Z,30.90
2018-12-14T04:44:13.156Z,33.07
2018-12-14T04:46:39.754Z,23.17
2018-12-14T04:49:06.223Z,29.20
2018-12-14T04:51:32.794Z,30.60
2018-12-14T04:53:59.276Z,28.90
2018-12-14T04:56:25.703Z,32.40
2018-12-14T04:58:52.213Z,32.13
2018-12-14T05:01:18.798Z,35.90
2018-12-14T05:03:45.227Z,29.30
2018-12-14T05:06:12.003Z,34.03
2018-12-14T05:08:38.457Z,34.47
2018-12-14T05:11:04.912Z,39.73
2018-12-14T05:13:31.819Z,34.23
2018-12-14T05:15:58.292Z,35.33
2018-12-14T05:18:24.776Z,33.67
2018-12-14T05:20:51.297Z,40.07
2018-12-14T05:23:17.764Z,34.60
2018-12-14T05:25:44.227Z,39.97
2018-12-14T05:28:11.024Z,38.30
2018-12-14T05:30:37.482Z,42.33
2018-12-14T05:33:03.952Z,39.70
2018-12-14T05:35:30.461Z,38.60
2018-12-14T05:37:57.135Z,39.93
2018-12-14T05:40:23.599Z,43.00
2018-12-14T05:42:50.136Z,42.77
2018-12-14T05:45:16.774Z,44.47
2018-12-14T05:47:43.287Z,50.67
2018-12-14T05:50:09.797Z,40.50
2018-12-14T05:52:36.283Z,44.60
2018-12-14T05:55:03.021Z,52.17
2018-12-14T05:57:29.499Z,49.83
2018-12-14T05:59:56.022Z,44.00
2018-12-14T06:02:22.690Z,48.53
2018-12-14T06:04:49.522Z,48.67
2018-12-14T06:07:16.554Z,47.60
2018-12-14T06:09:43.011Z,45.90
2018-12-14T06:12:09.761Z,41.07
2018-12-14T06:14:36.201Z,47.20
2018-12-14T06:17:02.575Z,56.87
2018-12-14T06:19:29.087Z,45.63
2018-12-14T06:21:55.540Z,45.43
2018-12-14T06:24:21.999Z,44.73
2018-12-14T06:26:48.487Z,47.67
2018-12-14T06:29:16.019Z,48.17
2018-12-14T06:31:42.487Z,44.80
2018-12-14T06:34:09.008Z,45.43
2018-12-14T06:36:35.475Z,43.40
2018-12-14T06:39:02.550Z,43.87
2018-12-14T06:41:29.359Z,44.17
2018-12-14T06:43:55.886Z,40.73
2018-12-14T06:46:22.370Z,44.33
2018-12-14T06:48:49.216Z,47.57
2018-12-14T06:51:15.693Z,40.87
2018-12-14T06:53:42.156Z,45.33
2018-12-14T06:56:08.667Z,41.97
2018-12-14T06:58:35.127Z,37.40
2018-12-14T07:01:01.595Z,37.90
2018-12-14T07:03:28.267Z,41.80
2018-12-14T07:05:54.710Z,45.43
2018-12-14T07:08:21.172Z,40.90
2018-12-14T07:10:47.621Z,47.67
2018-12-14T07:13:14.126Z,45.77
2018-12-14T07:15:40.609Z,45.33
2018-12-14T07:18:07.258Z,40.87
2018-12-14T07:20:33.980Z,42.97
2018-12-14T07:23:00.473Z,43.50
2018-12-14T07:25:26.995Z,46.97
2018-12-14T07:27:53.481Z,38.83
2018-12-14T07:30:27.054Z,45.13
2018-12-14T07:32:53.519Z,46.83
2018-12-14T07:35:19.979Z,45.97
2018-12-14T07:37:46.559Z,40.80
2018-12-14T07:40:13.044Z,47.77
2018-12-14T07:42:39.639Z,44.80
2018-12-14T07:45:06.347Z,51.53
2018-12-14T07:47:32.855Z,46.40
2018-12-14T07:49:59.312Z,49.93
2018-12-14T07:52:25.766Z,52.20
2018-12-14T07:54:52.168Z,48.17
2018-12-14T07:57:18.594Z,39.77
2018-12-14T07:59:45.147Z,52.40
2018-12-14T08:02:11.677Z,46.20
2018-12-14T08:04:38.388Z,46.80
2018-12-14T08:07:05.278Z,45.00
2018-12-14T08:09:31.884Z,55.30
2018-12-14T08:11:58.348Z,51.00
2018-12-14T08:14:24.802Z,47.53
2018-12-14T08:16:51.293Z,44.37
2018-12-14T08:19:17.904Z,51.97
2018-12-14T08:21:44.700Z,49.50
2018-12-14T08:24:11.126Z,46.83
2018-12-14T08:26:37.602Z,49.50
2018-12-14T08:29:04.096Z,41.83
2018-12-14T08:31:30.608Z,42.10
2018-12-14T08:33:57.068Z,47.53
2018-12-14T08:36:23.820Z,44.33
2018-12-14T08:38:50.291Z,49.90
2018-12-14T08:41:16.744Z,38.90
2018-12-14T08:43:43.273Z,41.50
2018-12-14T08:46:09.731Z,48.57
2018-12-14T08:48:36.437Z,44.67
2018-12-14T08:51:02.945Z,47.93
2018-12-14T08:53:29.621Z,38.47
2018-12-14T08:55:56.287Z,41.70
2018-12-14T08:58:22.809Z,45.73
2018-12-14T09:00:49.269Z,44.93
2018-12-14T09:03:15.710Z,57.10
2018-12-14T09:05:42.236Z,38.40
2018-12-14T09:08:08.706Z,46.47
2018-12-14T09:10:35.188Z,38.27
2018-12-14T09:13:01.638Z,39.23
2018-12-14T09:15:28.083Z,38.10
2018-12-14T09:17:54.597Z,37.10
2018-12-14T09:20:21.363Z,40.70
2018-12-14T09:22:48.302Z,38.63
2018-12-14T09:25:14.785Z,41.60
2018-12-14T09:27:41.671Z,41.63
2018-12-14T09:30:08.184Z,40.43
2018-12-14T09:32:34.614Z,41.80
2018-12-14T09:35:01.458Z,42.00
2018-12-14T09:37:27.871Z,33.40
2018-12-14T09:39:54.319Z,43.40
2018-12-14T09:42:20.843Z,36.50
2018-12-14T09:44:47.391Z,41.30
2018-12-14T09:47:13.916Z,38.37
2018-12-14T09:49:40.779Z,32.20
2018-12-14T09:52:07.231Z,37.20
2018-12-14T09:54:33.695Z,38.70
2018-12-14T09:57:00.490Z,36.77
2018-12-14T09:59:26.954Z,29.70
2018-12-14T10:01:53.382Z,38.87
2018-12-14T10:04:19.811Z,34.10
2018-12-14T10:06:46.322Z,36.40
2018-12-14T10:09:12.804Z,37.20
2018-12-14T10:11:39.527Z,38.33
2018-12-14T10:14:06.104Z,34.73
2018-12-14T10:16:32.960Z,32.93
2018-12-14T10:19:00.021Z,33.47
2018-12-14T10:21:26.508Z,32.10
2018-12-14T10:23:52.979Z,37.00
2018-12-14T10:26:19.742Z,36.47
2018-12-14T10:28:46.166Z,32.50
2018-12-14T10:31:12.736Z,29.30
2018-12-14T10:33:39.207Z,27.67
2018-12-14T10:36:05.625Z,27.67
2018-12-14T10:38:32.082Z,31.03
2018-12-14T10:40:58.839Z,21.70
2018-12-14T10:43:25.307Z,18.63
2018-12-14T10:45:52.798Z,25.50
2018-12-14T10:48:19.693Z,30.07
2018-12-14T10:50:46.219Z,26.00
2018-12-14T10:53:12.859Z,26.47
2018-12-14T10:55:39.644Z,22.07
2018-12-14T10:58:06.324Z,20.70
2018-12-14T11:00:39.043Z,23.00
2018-12-14T11:03:05.483Z,25.50
2018-12-14T11:05:31.846Z,20.80
2018-12-14T11:07:58.348Z,23.20
2018-12-14T11:10:25.189Z,22.70
2018-12-14T11:12:51.683Z,19.70
2018-12-14T11:15:18.094Z,18.10
2018-12-14T11:17:44.571Z,24.67
2018-12-14T11:20:11.004Z,26.53
2018-12-14T11:22:38.299Z,20.40
2018-12-14T11:25:05.406Z,17.60
2018-12-14T11:27:31.830Z,21.30
2018-12-14T11:29:58.312Z,19.83
2018-12-14T11:32:25.092Z,19.90
2018-12-14T11:34:51.584Z,19.37
2018-12-14T11:37:18.045Z,27.60
2018-12-14T11:39:44.512Z,25.90
2018-12-14T11:42:10.929Z,23.47
2018-12-14T11:44:37.376Z,18.73
2018-12-14T11:47:04.490Z,26.00
2018-12-14T11:49:31.018Z,28.13
2018-12-14T11:51:57.957Z,19.93
2018-12-14T11:54:24.758Z,17.00
2018-12-14T11:56:51.265Z,19.23
2018-12-14T11:59:17.781Z,18.73
2018-12-14T12:01:44.699Z,17.40
2018-12-14T12:04:11.223Z,16.77
2018-12-14T12:06:37.788Z,15.43
2018-12-14T12:09:05.263Z,16.97
2018-12-14T12:11:31.765Z,16.23
2018-12-14T12:13:58.306Z,17.13
2018-12-14T12:16:25.300Z,16.23
2018-12-14T12:18:51.806Z,15.20
2018-12-14T12:21:18.306Z,13.23
2018-12-14T12:23:44.842Z,16.30
2018-12-14T12:26:11.374Z,19.07
2018-12-14T12:28:37.971Z,22.00
2018-12-14T12:31:04.617Z,16.30
2018-12-14T12:33:31.037Z,19.77
2018-12-14T12:35:57.615Z,18.63
2018-12-14T12:38:24.214Z,20.03
2018-12-14T12:40:50.637Z,13.87
2018-12-14T12:43:17.111Z,22.57
2018-12-14T12:45:43.629Z,16.13
2018-12-14T12:48:10.161Z,17.63
2018-12-14T12:50:36.675Z,19.07
2018-12-14T12:53:03.205Z,21.00
2018-12-14T12:55:29.721Z,23.67
2018-12-14T12:57:56.221Z,20.87
2018-12-14T13:00:23.144Z,22.20
2018-12-14T13:02:49.711Z,33.70
2018-12-14T13:05:16.181Z,26.77
2018-12-14T13:07:42.677Z,26.03
2018-12-14T13:10:09.248Z,25.47
2018-12-14T13:12:35.670Z,28.30
2018-12-14T13:15:02.529Z,22.67
2018-12-14T13:17:29.072Z,25.70
2018-12-14T13:19:55.605Z,23.10
2018-12-14T13:22:22.380Z,25.20
2018-12-14T13:24:48.880Z,23.90
2018-12-14T13:27:20.253Z,45.83
2018-12-14T13:29:44.224Z,23.03
2018-12-14T13:32:11.884Z,31.33
2018-12-14T13:34:38.468Z,37.17
2018-12-14T13:37:05.058Z,32.80
2018-12-14T13:39:31.539Z,21.10
2018-12-14T13:41:58.094Z,23.00
2018-12-14T13:44:25.009Z,25.30
2018-12-14T13:46:51.531Z,17.53
2018-12-14T13:49:18.040Z,24.20
2018-12-14T13:51:44.677Z,29.37
2018-12-14T13:54:11.152Z,24.53
2018-12-14T13:56:37.712Z,27.57
2018-12-14T13:59:04.530Z,28.73
2018-12-14T14:01:31.060Z,27.00
2018-12-14T14:03:57.753Z,23.13
2018-12-14T14:06:24.506Z,27.73
2018-12-14T14:08:50.983Z,28.93
2018-12-14T14:11:17.712Z,26.93
2018-12-14T14:13:44.370Z,28.00
2018-12-14T14:16:10.964Z,24.23
2018-12-14T14:18:37.426Z,28.33
2018-12-14T14:21:04.288Z,29.37
2018-12-14T14:23:30.747Z,25.53
2018-12-14T14:25:57.216Z,27.83
2018-12-14T14:28:24.029Z,36.63
2018-12-14T14:30:50.512Z,32.87
2018-12-14T14:33:16.947Z,42.93
2018-12-14T14:35:43.880Z,46.07
2018-12-14T14:38:10.356Z,34.50
2018-12-14T14:40:36.978Z,35.30
2018-12-14T14:43:03.477Z,33.43
2018-12-14T14:45:29.914Z,40.80
2018-12-14T14:47:56.400Z,36.20
2018-12-14T14:50:23.168Z,39.87
2018-12-14T14:52:49.693Z,36.03
2018-12-14T14:55:16.359Z,35.93
2018-12-14T14:57:43.170Z,40.37
2018-12-14T15:00:09.752Z,41.10
2018-12-14T15:02:36.323Z,39.57
2018-12-14T15:05:03.671Z,41.37
2018-12-14T15:07:30.104Z,42.80
2018-12-14T15:09:56.591Z,40.90
2018-12-14T15:12:23.319Z,38.90
2018-12-14T15:14:49.840Z,43.00
2018-12-14T15:17:16.459Z,46.83
2018-12-14T15:19:42.936Z,46.53
2018-12-14T15:22:09.427Z,43.43
2018-12-14T15:24:35.929Z,42.97
2018-12-14T15:27:02.479Z,48.50
2018-12-14T15:29:28.911Z,50.30
2018-12-14T15:31:55.471Z,41.90
2018-12-14T15:34:22.018Z,43.13
2018-12-14T15:36:48.544Z,46.57
2018-12-14T15:39:15.014Z,41.47
2018-12-14T15:41:41.764Z,46.67
2018-12-14T15:44:08.333Z,45.20
2018-12-14T15:46:34.935Z,40.50
2018-12-14T15:49:01.945Z,53.63
2018-12-14T15:51:28.516Z,56.00
2018-12-14T15:53:55.143Z,63.67
2018-12-14T15:56:21.699Z,54.70
2018-12-14T15:58:48.197Z,42.50
2018-12-14T16:01:14.664Z,47.40
2018-12-14T16:03:41.465Z,45.47
2018-12-14T16:06:08.033Z,45.90
2018-12-14T16:08:34.473Z,48.40
2018-12-14T16:11:00.996Z,51.13
2018-12-14T16:13:27.669Z,53.50
2018-12-14T16:15:54.148Z,50.13
2018-12-14T16:18:20.626Z,52.50
2018-12-14T16:20:47.154Z,57.87
2018-12-14T16:23:13.646Z,57.77
2018-12-14T16:25:40.433Z,53.23
2018-12-14T16:28:06.861Z,53.50
2018-12-14T16:30:33.231Z,49.43
2018-12-14T16:33:00.079Z,57.43
2018-12-14T16:35:26.677Z,55.80
2018-12-14T16:37:53.176Z,50.30
2018-12-14T16:40:19.724Z,57.73
2018-12-14T16:42:46.225Z,58.60
2018-12-14T16:45:12.732Z,58.73
2018-12-14T16:47:39.587Z,54.90
2018-12-14T16:50:12.961Z,54.37
2018-12-14T16:52:39.468Z,47.23
2018-12-14T16:55:06.032Z,48.30
2018-12-14T16:57:32.501Z,66.57
2018-12-14T16:59:58.992Z,52.93
2018-12-14T17:02:25.514Z,53.03
2018-12-14T17:04:52.019Z,64.20
2018-12-14T17:07:18.932Z,57.70
2018-12-14T17:09:45.526Z,53.83
2018-12-14T17:12:11.942Z,70.63
2018-12-14T17:14:38.374Z,54.20
2018-12-14T17:17:04.903Z,51.00
2018-12-14T17:19:31.400Z,57.27
2018-12-14T17:21:58.193Z,59.43
2018-12-14T17:24:24.669Z,57.37
2018-12-14T17:26:51.483Z,61.70
2018-12-14T17:29:18.454Z,59.17
2018-12-14T17:31:45.059Z,50.83
2018-12-14T17:34:11.519Z,60.60
2018-12-14T17:36:38.363Z,56.13
2018-12-14T17:39:05.578Z,51.30
2018-12-14T17:41:32.286Z,67.90
2018-12-14T17:43:59.526Z,52.53
2018-12-14T17:46:26.464Z,63.03
2018-12-14T17:48:53.104Z,64.17
2018-12-14T17:51:19.968Z,59.93
2018-12-14T17:53:49.886Z,60.93
2018-12-14T17:56:16.718Z,61.00
2018-12-14T17:58:43.702Z,55.40
2018-12-14T18:01:10.965Z,60.17
2018-12-14T18:03:38.746Z,68.30
2018-12-14T18:06:05.504Z,60.90
2018-12-14T18:08:32.086Z,56.20
2018-12-14T18:10:58.737Z,57.00
2018-12-14T18:13:25.466Z,63.83
2018-12-14T18:15:54.460Z,59.30
2018-12-14T18:18:21.395Z,56.80
2018-12-14T18:20:48.322Z,60.53
2018-12-14T18:23:15.541Z,61.17
2018-12-14T18:25:42.280Z,66.10
2018-12-14T18:28:10.256Z,66.20
2018-12-14T18:30:37.070Z,62.93
2018-12-14T18:33:03.943Z,55.77
2018-12-14T18:35:30.451Z,57.50
2018-12-14T18:37:56.874Z,58.40
2018-12-14T18:40:23.371Z,59.70
2018-12-14T18:42:50.070Z,59.53
2018-12-14T18:45:16.617Z,58.30
2018-12-14T18:47:43.124Z,65.43
2018-12-14T18:50:09.662Z,64.10
2018-12-14T18:52:36.194Z,68.93
2018-12-14T18:55:02.873Z,67.30
2018-12-14T18:57:29.455Z,64.87
2018-12-14T18:59:55.923Z,56.30
2018-12-14T19:02:22.379Z,55.50
2018-12-14T19:04:48.984Z,56.97
2018-12-14T19:07:15.448Z,71.10
2018-12-14T19:09:42.069Z,62.90
2018-12-14T19:12:08.720Z,56.87
2018-12-14T19:14:36.088Z,64.90
2018-12-14T19:17:02.543Z,58.90
2018-12-14T19:19:31.241Z,60.20
2018-12-14T19:21:57.904Z,64.97
2018-12-14T19:24:24.540Z,67.93
2018-12-14T19:26:51.283Z,63.47
2018-12-14T19:29:17.788Z,55.23
2018-12-14T19:31:44.214Z,66.63
2018-12-14T19:34:10.819Z,63.80
2018-12-14T19:36:37.305Z,62.37
2018-12-14T19:39:04.409Z,60.57
2018-12-14T19:41:30.990Z,59.87
2018-12-14T19:43:57.463Z,63.17
2018-12-14T19:46:23.878Z,58.67
2018-12-14T19:48:50.809Z,65.60
2018-12-14T19:51:18.272Z,63.37
2018-12-14T19:53:44.764Z,68.40
2018-12-14T19:56:11.228Z,68.83
2018-12-14T19:58:38.370Z,67.40
2018-12-14T20:01:04.946Z,60.70
2018-12-14T20:03:31.471Z,61.43
2018-12-14T20:06:04.797Z,65.17
2018-12-14T20:08:31.213Z,64.30
2018-12-14T20:10:58.826Z,55.90
2018-12-14T20:13:25.385Z,61.40
2018-12-14T20:15:57.519Z,53.83
2018-12-14T20:18:20.654Z,60.93
2018-12-14T20:20:47.373Z,52.27
2018-12-14T20:23:13.931Z,76.17
2018-12-14T20:25:42.127Z,40.63
2018-12-14T20:28:12.423Z,71.40
2018-12-14T20:30:39.034Z,76.13
2018-12-14T20:33:05.594Z,70.13
2018-12-14T20:35:32.419Z,54.23
2018-12-14T20:37:59.099Z,65.50
2018-12-14T20:40:25.831Z,57.43
2018-12-14T20:42:52.866Z,62.00
2018-12-14T20:45:19.386Z,63.17
2018-12-14T20:47:46.113Z,64.40
2018-12-14T20:50:14.015Z,59.33
2018-12-14T20:52:40.830Z,61.00
2018-12-14T20:55:08.314Z,57.93
2018-12-14T20:57:34.977Z,59.07
2018-12-14T21:00:01.604Z,58.50
2018-12-14T21:02:28.362Z,59.73
2018-12-14T21:04:54.835Z,54.67
2018-12-14T21:07:21.299Z,50.03
2018-12-14T21:09:48.520Z,52.53
2018-12-14T21:12:15.046Z,58.07
2018-12-14T21:14:41.700Z,53.37
2018-12-14T21:17:10.427Z,54.07
2018-12-14T21:19:37.770Z,56.97
2018-12-14T21:22:06.248Z,52.63
2018-12-14T21:24:32.706Z,50.80
2018-12-14T21:26:59.300Z,47.37
2018-12-14T21:29:25.771Z,53.40
2018-12-14T21:31:52.305Z,49.30
2018-12-14T21:34:18.975Z,52.17
2018-12-14T21:36:45.553Z,50.30
2018-12-14T21:39:12.244Z,52.77
2018-12-14T21:41:38.765Z,55.43
2018-12-14T21:44:05.348Z,56.87
2018-12-14T21:46:32.789Z,49.40
2018-12-14T21:48:59.898Z,51.63
2018-12-14T21:51:26.804Z,51.27
2018-12-14T21:53:54.039Z,41.67
2018-12-14T21:56:21.138Z,48.53
2018-12-14T21:58:48.747Z,52.30
2018-12-14T22:01:15.618Z,44.40
2018-12-14T22:03:42.505Z,51.60
2018-12-14T22:06:09.229Z,49.03
2018-12-14T22:08:35.956Z,53.00
2018-12-14T22:11:03.857Z,44.90
2018-12-14T22:13:30.523Z,45.67
2018-12-14T22:15:57.788Z,57.40
2018-12-14T22:18:24.840Z,53.30
2018-12-14T22:20:51.990Z,50.83
2018-12-14T22:23:18.851Z,51.17
2018-12-14T22:25:45.337Z,48.20
2018-12-14T22:28:11.811Z,48.70
2018-12-14T22:30:38.255Z,52.57
2018-12-14T22:33:04.777Z,56.73
2018-12-14T22:35:31.299Z,50.60
2018-12-14T22:37:58.779Z,51.07
2018-12-14T22:40:25.329Z,48.13
2018-12-14T22:42:51.873Z,52.50
2018-12-14T22:45:18.609Z,55.53
2018-12-14T22:47:45.032Z,50.77
2018-12-14T22:50:11.489Z,47.20
2018-12-14T22:52:38.001Z,49.83
2018-12-14T22:55:04.624Z,50.00
2018-12-14T22:57:31.581Z,52.50
2018-12-14T22:59:58.271Z,42.67
2018-12-14T23:02:24.952Z,45.47
2018-12-14T23:04:51.474Z,42.67
2018-12-14T23:07:18.188Z,48.67
2018-12-14T23:09:45.362Z,50.17
2018-12-14T23:12:12.109Z,50.83
2018-12-14T23:14:38.550Z,47.20
2018-12-14T23:17:04.967Z,44.00
2018-12-14T23:19:31.618Z,43.20
2018-12-14T23:21:58.264Z,41.80
2018-12-14T23:24:24.771Z,47.70
2018-12-14T23:26:51.225Z,48.00
2018-12-14T23:29:18.048Z,42.47
2018-12-14T23:31:44.567Z,43.73
2018-12-14T23:34:11.112Z,41.80
2018-12-14T23:36:37.900Z,48.87
2018-12-14T23:39:04.804Z,36.93
2018-12-14T23:41:31.304Z,38.07
2018-12-14T23:43:58.039Z,40.13
2018-12-14T23:46:24.508Z,38.43
2018-12-14T23:48:51.105Z,43.10
2018-12-14T23:51:17.655Z,43.73
2018-12-14T23:53:44.115Z,44.13
2018-12-14T23:56:10.680Z,38.30
2018-12-14T23:58:37.506Z,32.80
